Aviation Digital Data Service (ADDS)

Output produced by METARs form (0412 UTC 29 May 2015)
found at http://aviationweather.gov/adds/metars/
 
KGNV 282326Z 2900/2924 10008KT P6SM SCT040 SCT250 
     FM290200 09003KT P6SM SCT250 
     FM291600 09009KT P6SM SCT040 SCT250